Aeroporto :
LOGIN :

Iscrizione | Disclaimer

   EN    FR    IT 

 










Sommario :    VFR   VFR Marginale   IFR   IFR Intensivo   IFR Molto Intensivo
Visibilità : 
Base nubi : 
>= 8 km
>= 3000ft
5 / 8 km
1000 / 3000 ft
1500m / 5 km
500 / 1000 ft
800 / 1500m
200 / 500 ft
< 800m
< 200 ft
Simboli :   Temporali  Nebbia  Neve Forte  Precipitazioni Forti  Vento > 20 kt
SIGMETs :   Varie  Temporali  Ghiacco  Turbolenza  Onda orograficha  Ceneri Vulcaniche






- Altitudine del aeroporto : 341 ft


EPMO - Modlin

ULTIMO METAR :
  • 011500Z 26016KT CAVOK 08/M07 Q1015

METARs OBSOLETI :
  • 011430Z 25018KT CAVOK 07/M08 Q1015
  • 011400Z 24017KT CAVOK 07/M08 Q1016
  • 011330Z 26015KT 220V300 CAVOK 07/M07 Q1016
  • 011300Z 24016KT 210V270 CAVOK 07/M08 Q1016
  • 011230Z 26017KT CAVOK 07/M07 Q1017

TAF TAF EPMO
Valido dal 01 a 12 ore il 02 a 12 ore UTC


011130Z 0112/0212 25012KT CAVOK
TEMPO 0112/0115 27016G26KT
PROB40
TEMPO 0209/0212 26015G25KT



MetMap, La meteo Aeronautica in un colpo d'occhio ! - Copyright ORBIFLY Dicembre 2007 - Disclaimer

ORBIFLY MET'MAP TEAM :

Programmazione e sviluppo : Alexandra Zaïnal
Concezione : Baudouin d'Aumeries
Aiuto per la programmazione : Marc-Olivier Méhu
Supporto tecnico e logistico : Manuel Goepfert
Aiuto per la traduzione : Arnaldo La Scala

Contatto : metmap@orbifly.com




FONTI E CREDITI :

   NOAA